Time;durP1;ratioP1;P1;durP2;ratioP2;P2;SDS_P1;SDS_P2;PMS_P1;PMS_P2;Temp;Humidity;BMP_temperature;BMP_pressure;BME280_temperature;BME280_humidity;BME280_pressure;Samples;Min_cycle;Max_cycle;Signal;HPM_P1;HPM_P2
2021/11/02 00:01:54;;;;;;;5.40;4.90;;;9.00;93.30;;;;;;5035257;28;20591;-90
2021/11/02 00:04:20;;;;;;;5.33;4.70;;;9.00;92.90;;;;;;5017747;28;20244;-90
2021/11/02 00:06:46;;;;;;;5.27;4.40;;;9.00;92.60;;;;;;5034125;28;20423;-89
2021/11/02 00:09:16;;;;;;;5.67;5.03;;;9.10;92.70;;;;;;5034396;28;20198;-91
2021/11/02 00:11:42;;;;;;;7.60;4.80;;;9.10;92.40;;;;;;5036665;28;20191;-90
2021/11/02 00:14:10;;;;;;;4.73;4.33;;;9.20;92.30;;;;;;5036891;28;20430;-89
2021/11/02 00:16:36;;;;;;;5.43;4.83;;;9.20;91.60;;;;;;5035853;28;20213;-89
2021/11/02 00:19:05;;;;;;;5.17;4.67;;;9.20;91.80;;;;;;5039005;28;20254;-90
2021/11/02 00:21:34;;;;;;;4.77;4.30;;;9.20;91.80;;;;;;5040749;28;20669;-89
2021/11/02 00:24:12;;;;;;;4.30;3.90;;;9.10;91.90;;;;;;5038776;28;20200;-91
2021/11/02 00:26:38;;;;;;;5.40;4.27;;;9.10;92.70;;;;;;5036919;28;20697;-90
2021/11/02 00:29:05;;;;;;;4.67;4.10;;;9.10;92.60;;;;;;5038591;28;20186;-92
2021/11/02 00:31:30;;;;;;;4.20;3.77;;;9.00;93.00;;;;;;5040052;28;20223;-90
2021/11/02 00:33:57;;;;;;;4.93;4.00;;;9.00;93.10;;;;;;5037669;28;20197;-90
2021/11/02 00:36:23;;;;;;;4.07;3.70;;;9.10;93.40;;;;;;5038870;28;20589;-91
2021/11/02 00:38:49;;;;;;;5.43;3.70;;;9.10;93.70;;;;;;5040460;28;20217;-89
2021/11/02 00:41:15;;;;;;;3.50;3.20;;;9.20;93.20;;;;;;5022075;28;20193;-90
2021/11/02 00:43:43;;;;;;;3.50;3.17;;;9.20;93.10;;;;;;5041286;28;20193;-89
2021/11/02 00:46:08;;;;;;;4.43;3.47;;;9.10;93.00;;;;;;5037297;28;20205;-91
2021/11/02 00:48:34;;;;;;;4.07;3.40;;;9.10;93.60;;;;;;5037370;28;20678;-91
2021/11/02 00:51:00;;;;;;;4.17;3.10;;;9.10;94.10;;;;;;5038979;28;20609;-91
2021/11/02 00:53:26;;;;;;;3.47;3.10;;;9.20;93.80;;;;;;5039208;28;20197;-90
2021/11/02 00:55:52;;;;;;;4.37;2.93;;;9.20;93.90;;;;;;5037895;28;20229;-90
2021/11/02 00:58:20;;;;;;;3.83;2.90;;;9.30;93.80;;;;;;5036689;28;20193;-89
2021/11/02 01:00:46;;;;;;;4.10;2.70;;;9.30;94.00;;;;;;5038267;28;20189;-91
2021/11/02 01:03:12;;;;;;;3.13;2.70;;;9.30;93.70;;;;;;5037990;28;20197;-91
2021/11/02 01:05:38;;;;;;;5.20;2.53;;;9.30;93.70;;;;;;5037653;28;20241;-91
2021/11/02 01:08:04;;;;;;;3.20;2.50;;;9.30;93.80;;;;;;5038475;28;20197;-91
2021/11/02 01:10:31;;;;;;;4.63;2.97;;;9.30;94.10;;;;;;5039151;28;20194;-89
2021/11/02 01:12:56;;;;;;;3.17;2.37;;;9.40;94.20;;;;;;5036975;28;20332;-91
2021/11/02 01:15:26;;;;;;;4.60;2.97;;;9.30;94.50;;;;;;5043169;28;20658;-90
2021/11/02 01:17:51;;;;;;;3.77;2.23;;;9.20;95.40;;;;;;5038836;28;20287;-90
2021/11/02 01:20:17;;;;;;;4.70;2.30;;;9.00;97.30;;;;;;5019504;28;20221;-90
2021/11/02 01:22:45;;;;;;;4.70;2.37;;;8.80;98.80;;;;;;5018319;28;20240;-89
2021/11/02 01:25:12;;;;;;;6.83;2.40;;;8.90;99.10;;;;;;5038310;28;20208;-90
2021/11/02 01:27:42;;;;;;;3.80;2.17;;;8.90;98.90;;;;;;5036251;28;20195;-90
2021/11/02 01:30:09;;;;;;;4.60;2.60;;;8.80;99.60;;;;;;5037658;28;20191;-91
2021/11/02 01:32:35;;;;;;;2.23;2.03;;;8.80;99.90;;;;;;5038130;28;20205;-90
2021/11/02 01:35:01;;;;;;;3.03;2.23;;;8.80;99.90;;;;;;5040064;28;20200;-91
2021/11/02 01:37:30;;;;;;;4.10;2.10;;;8.80;99.90;;;;;;5036887;28;20235;-90
2021/11/02 01:39:56;;;;;;;2.77;2.43;;;8.90;99.90;;;;;;5034969;28;20189;-91
2021/11/02 01:42:25;;;;;;;2.10;1.90;;;8.90;99.90;;;;;;5038011;28;20212;-89
2021/11/02 01:44:53;;;;;;;3.10;2.20;;;8.90;99.90;;;;;;5037255;28;20428;-90
2021/11/02 01:47:20;;;;;;;2.53;2.33;;;8.70;99.90;;;;;;5035563;28;20220;-90
2021/11/02 01:49:47;;;;;;;2.87;2.00;;;8.80;99.90;;;;;;5037741;28;20276;-91
2021/11/02 01:52:12;;;;;;;3.73;2.40;;;8.80;99.90;;;;;;5035271;28;20197;-90
2021/11/02 01:54:39;;;;;;;3.97;2.30;;;8.80;99.90;;;;;;5034156;28;20546;-91
2021/11/02 01:57:05;;;;;;;6.43;2.60;;;8.80;99.90;;;;;;5037118;28;20220;-89
2021/11/02 01:59:34;;;;;;;3.17;2.37;;;8.70;99.90;;;;;;5037874;28;20196;-91
2021/11/02 02:02:06;;;;;;;4.20;2.53;;;8.80;99.90;;;;;;5035203;28;20220;-90
2021/11/02 02:04:41;;;;;;;2.70;2.27;;;8.80;99.90;;;;;;5035416;28;20234;-90
2021/11/02 02:07:32;;;;;;;2.80;2.10;;;8.70;99.90;;;;;;5020160;28;20249;-90
2021/11/02 02:10:19;;;;;;;2.77;2.13;;;8.90;99.90;;;;;;5035534;28;20195;-91
2021/11/02 02:12:56;;;;;;;2.87;2.30;;;8.90;99.90;;;;;;5035224;28;20239;-90
2021/11/02 02:15:25;;;;;;;5.47;2.30;;;9.10;99.50;;;;;;5034388;28;20636;-90
2021/11/02 02:18:07;;;;;;;2.93;2.30;;;9.00;99.80;;;;;;5037956;28;20184;-91
2021/11/02 02:21:01;;;;;;;3.33;2.30;;;9.00;99.70;;;;;;5037792;28;20223;-91
2021/11/02 02:23:33;;;;;;;3.83;2.37;;;9.00;99.90;;;;;;5038342;28;20268;-90
2021/11/02 02:26:34;;;;;;;6.93;2.73;;;8.90;99.90;;;;;;5036556;28;20264;-91
2021/11/02 02:29:03;;;;;;;3.60;2.40;;;8.90;99.90;;;;;;5037195;28;20192;-91
2021/11/02 02:31:35;;;;;;;4.93;2.43;;;8.70;99.90;;;;;;5036875;28;20196;-91
2021/11/02 02:34:04;;;;;;;4.30;2.43;;;8.70;99.90;;;;;;5037006;28;20189;-89
2021/11/02 02:36:32;;;;;;;3.43;2.80;;;8.80;99.90;;;;;;5033745;28;20216;-90
2021/11/02 02:39:00;;;;;;;3.97;2.37;;;8.70;99.90;;;;;;5036405;28;20181;-89
2021/11/02 02:41:26;;;;;;;3.37;2.57;;;8.80;99.90;;;;;;5035202;28;20573;-91
2021/11/02 02:43:53;;;;;;;2.67;2.27;;;8.70;99.90;;;;;;5035379;28;20287;-91
2021/11/02 02:46:20;;;;;;;3.63;2.40;;;8.70;99.90;;;;;;5035019;28;20235;-90
2021/11/02 02:48:47;;;;;;;3.47;2.53;;;8.70;99.90;;;;;;5037394;28;20204;-90
2021/11/02 02:51:15;;;;;;;4.43;2.60;;;8.70;99.90;;;;;;5036030;28;20334;-89
2021/11/02 02:53:46;;;;;;;6.37;2.80;;;8.70;99.90;;;;;;5033721;28;20196;-89
2021/11/02 02:56:12;;;;;;;2.33;2.13;;;8.70;99.90;;;;;;5038038;28;20209;-89
2021/11/02 02:58:42;;;;;;;5.30;3.17;;;8.70;99.90;;;;;;5036573;28;20189;-90
2021/11/02 03:01:10;;;;;;;6.83;2.47;;;8.70;99.90;;;;;;5034962;28;20196;-89
2021/11/02 03:04:03;;;;;;;5.83;2.10;;;8.60;99.90;;;;;;5038645;28;20215;-91
2021/11/02 03:06:32;;;;;;;4.03;2.50;;;8.80;99.80;;;;;;5048002;28;20269;-91
2021/11/02 03:08:58;;;;;;;4.30;2.27;;;8.80;99.90;;;;;;5035864;28;20224;-90
2021/11/02 03:11:27;;;;;;;3.40;2.40;;;8.70;99.90;;;;;;5035389;28;20182;-90
2021/11/02 03:13:56;;;;;;;5.93;2.93;;;8.70;99.90;;;;;;5036793;28;20181;-90
2021/11/02 03:16:39;;;;;;;4.10;2.60;;;8.50;99.90;;;;;;5037286;28;20213;-89
2021/11/02 03:49:20;;;;;;;3.70;2.40;;;9.00;97.60;;;;;;4995332;28;20211;-89
2021/11/02 03:54:45;;;;;;;3.07;2.20;;;9.00;97.40;;;;;;5039447;28;20281;-89
2021/11/02 05:53:02;;;;;;;2.77;2.50;;;8.60;97.10;;;;;;5033044;28;20205;-89
2021/11/02 05:57:44;;;;;;;4.93;2.60;;;8.70;97.00;;;;;;5026830;28;20169;-90
2021/11/02 06:05:45;;;;;;;2.93;2.67;;;8.60;95.60;;;;;;5034277;28;20332;-90
2021/11/02 06:28:38;;;;;;;4.47;3.23;;;8.60;95.70;;;;;;5037593;28;20686;-90
2021/11/02 06:31:12;;;;;;;4.83;3.23;;;8.70;95.80;;;;;;5045771;28;20244;-87
2021/11/02 06:34:26;;;;;;;4.43;4.07;;;8.60;95.80;;;;;;5043904;28;20248;-88
2021/11/02 06:56:31;;;;;;;5.90;3.10;;;8.40;96.90;;;;;;5037254;28;20225;-90
2021/11/02 07:23:03;;;;;;;5.40;3.70;;;8.80;95.40;;;;;;5039659;28;20228;-90
2021/11/02 08:48:56;;;;;;;4.13;3.70;;;9.10;99.80;;;;;;5031084;28;20547;-90
2021/11/02 08:51:23;;;;;;;8.87;3.97;;;9.00;99.90;;;;;;5035810;28;20187;-89
2021/11/02 08:53:49;;;;;;;5.20;3.70;;;9.20;99.90;;;;;;5035511;28;20194;-91
2021/11/02 08:56:19;;;;;;;4.97;3.83;;;9.20;99.90;;;;;;5036095;28;20305;-90
2021/11/02 08:58:48;;;;;;;6.30;4.00;;;9.20;99.90;;;;;;5039271;28;20190;-90
2021/11/02 09:01:17;;;;;;;5.73;4.33;;;9.30;99.70;;;;;;5038390;28;20262;-88
2021/11/02 09:03:51;;;;;;;7.97;4.90;;;9.50;99.40;;;;;;5040221;28;20218;-89
2021/11/02 09:06:23;;;;;;;7.63;4.93;;;9.60;97.90;;;;;;5033465;28;20203;-87
2021/11/02 09:08:54;;;;;;;5.90;4.40;;;9.60;98.20;;;;;;5030980;28;20226;-90
2021/11/02 09:11:25;;;;;;;6.97;4.50;;;9.60;98.40;;;;;;5028755;28;20203;-90
2021/11/02 09:13:58;;;;;;;4.50;4.10;;;9.70;97.80;;;;;;5040231;28;20204;-90
2021/11/02 09:16:25;;;;;;;5.10;4.13;;;9.80;97.30;;;;;;5045932;28;20591;-90
2021/11/02 09:18:53;;;;;;;6.37;4.40;;;9.90;96.40;;;;;;5032027;28;20199;-90
2021/11/02 09:21:21;;;;;;;5.77;4.00;;;9.70;97.50;;;;;;5034021;28;20206;-91
2021/11/02 09:23:48;;;;;;;6.83;4.30;;;9.70;97.70;;;;;;5032870;28;20212;-89
2021/11/02 09:26:16;;;;;;;5.00;4.20;;;9.70;98.20;;;;;;5032796;28;20218;-90
2021/11/02 09:28:42;;;;;;;4.97;4.10;;;9.60;98.90;;;;;;5031940;28;20271;-89
2021/11/02 09:31:08;;;;;;;4.70;4.20;;;9.60;99.40;;;;;;5037626;28;20186;-89
2021/11/02 09:33:34;;;;;;;6.07;4.83;;;9.50;99.90;;;;;;5039709;28;20818;-89
2021/11/02 09:36:06;;;;;;;4.47;4.07;;;9.40;99.90;;;;;;5029724;28;20218;-89
2021/11/02 09:38:48;;;;;;;6.30;4.47;;;9.40;99.90;;;;;;5032560;28;20218;-91
2021/11/02 09:41:34;;;;;;;6.00;4.07;;;9.30;99.90;;;;;;5025947;28;20208;-90
2021/11/02 09:44:11;;;;;;;5.03;3.73;;;9.30;99.90;;;;;;5038611;28;20231;-91
2021/11/02 09:46:59;;;;;;;4.63;3.83;;;9.20;99.90;;;;;;5031156;28;20209;-88
2021/11/02 09:49:34;;;;;;;7.17;3.70;;;9.10;99.90;;;;;;5043812;28;20185;-91
2021/11/02 09:52:37;;;;;;;3.53;2.90;;;9.30;99.90;;;;;;5036759;28;20260;-88
2021/11/02 09:55:33;;;;;;;4.93;3.53;;;9.20;99.90;;;;;;5034205;28;20226;-91
2021/11/02 09:58:16;;;;;;;4.70;3.20;;;9.00;99.90;;;;;;5039542;28;20188;-91
2021/11/02 10:01:18;;;;;;;4.87;3.17;;;9.10;99.90;;;;;;5036792;28;20748;-92
2021/11/02 10:04:20;;;;;;;3.90;2.43;;;9.10;99.90;;;;;;5027652;28;20227;-88
2021/11/02 10:07:03;;;;;;;3.70;2.57;;;9.20;99.90;;;;;;5036866;28;20699;-89
2021/11/02 10:09:48;;;;;;;4.63;2.33;;;8.90;99.90;;;;;;5033515;28;20658;-89
2021/11/02 10:12:23;;;;;;;3.00;2.17;;;8.90;99.90;;;;;;5029924;28;20185;-88
2021/11/02 10:15:05;;;;;;;3.07;2.10;;;8.90;99.90;;;;;;5030478;28;20211;-89
2021/11/02 10:18:06;;;;;;;3.57;1.83;;;8.90;99.90;;;;;;5028964;28;20239;-89
2021/11/02 10:21:00;;;;;;;3.10;1.90;;;8.90;99.90;;;;;;5026626;28;20192;-89
2021/11/02 10:23:44;;;;;;;1.73;1.63;;;9.00;99.90;;;;;;5036230;28;20208;-90
2021/11/02 10:26:34;;;;;;;4.17;1.90;;;9.00;99.90;;;;;;5033131;28;20213;-89
2021/11/02 10:29:25;;;;;;;4.60;2.60;;;8.90;99.90;;;;;;5032741;28;20191;-89
2021/11/02 10:32:00;;;;;;;2.53;1.73;;;9.00;99.90;;;;;;5032817;28;20188;-91
2021/11/02 10:34:41;;;;;;;2.93;1.87;;;9.00;99.90;;;;;;5034874;28;20234;-90
2021/11/02 10:37:12;;;;;;;2.23;1.87;;;9.10;99.90;;;;;;5034577;28;20197;-88
2021/11/02 10:40:03;;;;;;;2.67;1.90;;;9.10;99.90;;;;;;5032883;28;20654;-88
2021/11/02 10:42:55;;;;;;;1.93;1.83;;;9.10;99.90;;;;;;5029344;28;20669;-89
2021/11/02 10:45:27;;;;;;;3.30;2.30;;;9.20;99.90;;;;;;5033671;28;20232;-91
2021/11/02 10:48:11;;;;;;;2.77;2.00;;;9.30;99.90;;;;;;5029949;28;20190;-92
2021/11/02 10:50:50;;;;;;;2.30;2.00;;;9.20;99.90;;;;;;5032788;28;20662;-92
2021/11/02 10:53:26;;;;;;;2.03;1.73;;;9.30;99.90;;;;;;5031658;28;20211;-89
2021/11/02 10:56:14;;;;;;;3.80;2.10;;;9.20;99.90;;;;;;5031060;28;20246;-89
2021/11/02 10:58:49;;;;;;;2.50;2.27;;;9.30;99.90;;;;;;5027567;28;20190;-87
2021/11/02 11:01:16;;;;;;;2.10;1.87;;;9.30;99.90;;;;;;5030491;28;20196;-88
2021/11/02 11:03:43;;;;;;;1.97;1.83;;;9.40;99.90;;;;;;5031274;28;20224;-88
2021/11/02 11:06:11;;;;;;;3.17;1.67;;;9.40;99.90;;;;;;5036529;28;20701;-89
2021/11/02 11:08:39;;;;;;;2.93;1.93;;;9.30;99.90;;;;;;5029440;28;20196;-89
2021/11/02 11:11:10;;;;;;;3.57;1.80;;;9.30;99.90;;;;;;5030883;28;20205;-89
2021/11/02 11:13:40;;;;;;;1.70;1.60;;;9.30;99.90;;;;;;5031026;28;20219;-86
2021/11/02 11:16:07;;;;;;;1.70;1.60;;;9.30;99.90;;;;;;5034336;28;20292;-89
2021/11/02 11:18:43;;;;;;;2.10;1.80;;;9.30;99.90;;;;;;5031905;28;20192;-87
2021/11/02 11:21:10;;;;;;;2.17;1.77;;;9.50;99.90;;;;;;5028685;28;20307;-89
2021/11/02 11:23:37;;;;;;;3.97;2.07;;;9.60;99.90;;;;;;5029031;28;20782;-88
2021/11/02 11:26:06;;;;;;;2.03;1.73;;;9.50;99.90;;;;;;5028346;28;20216;-86
2021/11/02 11:28:39;;;;;;;3.33;2.00;;;9.60;99.90;;;;;;5029372;28;20197;-88
2021/11/02 11:31:06;;;;;;;2.90;1.90;;;9.70;99.90;;;;;;5022620;28;20284;-87
2021/11/02 11:33:33;;;;;;;2.07;1.80;;;9.80;99.90;;;;;;5024094;28;20249;-92
2021/11/02 11:36:06;;;;;;;2.27;1.80;;;9.70;99.90;;;;;;5031546;28;20243;-91
2021/11/02 11:38:38;;;;;;;2.67;1.90;;;9.70;99.90;;;;;;5034179;28;20196;-91
2021/11/02 11:41:06;;;;;;;2.07;1.90;;;9.70;99.90;;;;;;5030299;28;20192;-91
2021/11/02 11:43:33;;;;;;;2.13;1.80;;;9.70;99.90;;;;;;5023981;28;20217;-88
2021/11/02 11:46:05;;;;;;;2.50;1.80;;;9.80;99.90;;;;;;5032781;28;20736;-87
2021/11/02 11:48:38;;;;;;;2.47;1.90;;;9.90;99.90;;;;;;5027380;28;20251;-90
2021/11/02 11:51:05;;;;;;;2.07;1.93;;;10.00;99.90;;;;;;5027434;28;20227;-87
2021/11/02 11:53:36;;;;;;;2.37;2.00;;;10.00;99.90;;;;;;5029606;28;20209;-92
2021/11/02 11:56:10;;;;;;;2.43;1.90;;;10.00;99.90;;;;;;5025286;28;20220;-92
2021/11/02 11:58:51;;;;;;;2.07;1.80;;;9.90;99.90;;;;;;5010669;28;20201;-90
2021/11/02 12:01:46;;;;;;;2.00;1.90;;;9.80;99.90;;;;;;5061890;23;20489;-92
2021/11/02 12:04:30;;;;;;;2.30;2.00;;;9.80;99.90;;;;;;5053638;28;20554;-92
2021/11/02 12:07:17;;;;;;;2.17;2.00;;;9.90;99.90;;;;;;5055499;28;20188;-91
2021/11/02 12:09:46;;;;;;;5.40;2.00;;;10.10;99.60;;;;;;5050840;28;20184;-91
2021/11/02 12:12:13;;;;;;;3.00;2.20;;;10.10;99.90;;;;;;5058050;28;20231;-91
2021/11/02 12:14:55;;;;;;;3.00;2.43;;;10.30;98.10;;;;;;5053098;28;20278;-91
2021/11/02 12:17:24;;;;;;;2.00;1.90;;;10.50;99.90;;;;;;5067371;28;20235;-90
2021/11/02 12:20:04;;;;;;;2.00;1.90;;;10.80;99.90;;;;;;5068442;28;20192;-92
2021/11/02 12:22:44;;;;;;;3.20;1.80;;;11.40;96.50;;;;;;5060071;28;20220;-90
2021/11/02 12:25:12;;;;;;;1.80;1.70;;;11.80;93.80;;;;;;5065990;28;20254;-91
2021/11/02 12:27:40;;;;;;;2.63;2.10;;;12.10;95.70;;;;;;5054369;28;20223;-90
2021/11/02 12:30:18;;;;;;;1.60;1.50;;;11.60;93.10;;;;;;5052797;28;20177;-91
2021/11/02 12:32:46;;;;;;;2.43;1.77;;;11.50;92.10;;;;;;5059853;28;20593;-91
2021/11/02 12:35:35;;;;;;;5.80;2.00;;;11.60;93.20;;;;;;5040502;28;20299;-91
2021/11/02 12:38:04;;;;;;;2.10;1.90;;;11.50;92.60;;;;;;5063974;28;20211;-92
2021/11/02 12:40:34;;;;;;;1.70;1.60;;;11.30;95.30;;;;;;5066342;28;20188;-91
2021/11/02 12:43:01;;;;;;;2.37;1.80;;;11.00;95.20;;;;;;5053883;28;20280;-91
2021/11/02 12:45:34;;;;;;;3.13;2.07;;;10.90;96.20;;;;;;5055709;28;20177;-91
2021/11/02 12:48:01;;;;;;;2.17;1.97;;;10.90;96.00;;;;;;5047955;28;20243;-91
2021/11/02 12:50:29;;;;;;;2.90;1.63;;;11.00;96.00;;;;;;5056046;28;20181;-92
2021/11/02 12:52:57;;;;;;;2.47;1.77;;;10.90;97.10;;;;;;5039399;28;20224;-92
2021/11/02 12:55:32;;;;;;;3.10;1.80;;;10.90;97.20;;;;;;5032626;28;20212;-92
2021/11/02 12:58:10;;;;;;;1.50;1.40;;;11.00;94.70;;;;;;5055217;28;20191;-92
2021/11/02 13:00:50;;;;;;;1.60;1.50;;;10.80;94.70;;;;;;5052891;28;20176;-92
2021/11/02 13:03:25;;;;;;;2.23;1.50;;;10.80;93.60;;;;;;5055919;28;20212;-92
2021/11/02 13:06:11;;;;;;;1.60;1.50;;;11.40;92.50;;;;;;5040933;28;20223;-93
2021/11/02 13:08:44;;;;;;;1.80;1.60;;;11.90;90.90;;;;;;5053154;28;20667;-91
2021/11/02 13:11:19;;;;;;;1.60;1.50;;;12.30;89.50;;;;;;5052944;28;20470;-92
2021/11/02 13:14:04;;;;;;;1.40;1.30;;;12.50;85.50;;;;;;5047651;28;20187;-93
2021/11/02 13:16:49;;;;;;;2.27;1.40;;;12.60;86.40;;;;;;5052048;28;20198;-94
2021/11/02 13:19:16;;;;;;;1.20;1.20;;;12.40;85.10;;;;;;5051639;28;20188;-93
2021/11/02 13:21:41;;;;;;;1.43;1.33;;;11.90;88.80;;;;;;5034951;28;20216;-91
2021/11/02 13:24:14;;;;;;;1.67;1.57;;;12.20;87.60;;;;;;5053024;28;20232;-92
2021/11/02 13:26:45;;;;;;;3.07;2.27;;;12.30;88.20;;;;;;5048279;28;20193;-92
2021/11/02 13:29:13;;;;;;;1.63;1.50;;;12.50;88.30;;;;;;5057593;28;20205;-93
2021/11/02 13:31:40;;;;;;;1.60;1.50;;;13.00;84.80;;;;;;5040052;28;20215;-92
2021/11/02 13:34:11;;;;;;;1.53;1.43;;;13.00;83.80;;;;;;5054333;28;20195;-92
2021/11/02 13:36:37;;;;;;;1.67;1.57;;;12.90;85.60;;;;;;5043745;28;20248;-92
2021/11/02 13:39:07;;;;;;;1.80;1.70;;;13.10;83.90;;;;;;5053607;28;20191;-92
2021/11/02 13:41:45;;;;;;;2.10;1.40;;;13.20;84.10;;;;;;5056544;28;20272;-92
2021/11/02 13:44:11;;;;;;;1.47;1.37;;;12.70;84.40;;;;;;5033730;28;20292;-91
2021/11/02 13:46:42;;;;;;;1.50;1.40;;;12.60;83.70;;;;;;5049514;28;20193;-91
2021/11/02 13:49:10;;;;;;;1.77;1.40;;;12.40;85.20;;;;;;5031592;28;20649;-92
2021/11/02 13:51:36;;;;;;;1.97;1.60;;;12.20;85.80;;;;;;5038112;28;20207;-92
2021/11/02 13:54:03;;;;;;;1.40;1.30;;;12.20;85.40;;;;;;5051502;28;20201;-91
2021/11/02 13:56:35;;;;;;;1.33;1.33;;;11.90;85.90;;;;;;5035885;28;20203;-91
2021/11/02 13:59:03;;;;;;;1.60;1.50;;;11.80;86.70;;;;;;5045928;28;20207;-91
2021/11/02 14:01:50;;;;;;;1.40;1.30;;;11.70;85.90;;;;;;5055648;28;20630;-91
2021/11/02 14:04:22;;;;;;;1.33;1.30;;;11.50;85.20;;;;;;5048144;28;20557;-91
2021/11/02 14:07:12;;;;;;;1.20;1.20;;;11.40;85.40;;;;;;5045156;28;20184;-91
2021/11/02 14:09:43;;;;;;;1.30;1.20;;;11.30;85.60;;;;;;5053313;28;20185;-91
2021/11/02 14:12:32;;;;;;;1.53;1.33;;;11.20;86.00;;;;;;5049543;28;20629;-92
2021/11/02 14:15:10;;;;;;;1.50;1.30;;;11.20;89.00;;;;;;5048791;28;20188;-91
2021/11/02 14:18:05;;;;;;;1.50;1.40;;;11.20;87.70;;;;;;5046163;28;20210;-89
2021/11/02 14:20:51;;;;;;;2.10;2.00;;;11.10;89.50;;;;;;5045555;28;20215;-89
2021/11/02 14:23:19;;;;;;;2.30;1.30;;;11.10;92.20;;;;;;5055206;28;20440;-88
2021/11/02 14:25:45;;;;;;;1.20;1.20;;;10.90;89.60;;;;;;5054494;28;20204;-88
2021/11/02 14:28:11;;;;;;;1.40;1.30;;;10.80;91.00;;;;;;5053274;28;20216;-88
2021/11/02 14:30:39;;;;;;;1.13;1.13;;;10.80;91.20;;;;;;5055368;28;20196;-88
2021/11/02 14:33:10;;;;;;;1.40;1.30;;;10.80;91.30;;;;;;5057554;28;20196;-88
2021/11/02 14:36:15;;;;;;;1.50;1.00;;;10.90;90.10;;;;;;5051328;28;20214;-89
2021/11/02 14:38:48;;;;;;;1.07;1.07;;;10.80;90.10;;;;;;5023387;28;20203;-90
2021/11/02 14:41:58;;;;;;;1.87;1.40;;;10.90;91.60;;;;;;5099617;22;20235;-89
2021/11/02 14:45:30;;;;;;;;;;;;;;;;;;;;;
2021/11/02 14:48:41;;;;;;;1.57;1.40;;;10.90;93.20;;;;;;4927093;28;20231;-88
2021/11/02 15:02:16;;;;;;;1.50;1.37;;;9.80;95.60;;;;;;4989299;28;20235;-89
2021/11/02 15:04:44;;;;;;;1.40;1.23;;;9.70;96.60;;;;;;5041109;28;20196;-90
2021/11/02 15:11:43;;;;;;;1.77;1.40;;;9.50;97.80;;;;;;4976822;28;20194;-90
2021/11/02 15:14:57;;;;;;;1.73;1.40;;;9.30;98.80;;;;;;4908029;29;20201;-89
2021/11/02 15:17:53;;;;;;;1.33;1.20;;;9.30;99.10;;;;;;4923280;29;20223;-89
2021/11/02 15:20:23;;;;;;;0.93;0.90;;;9.10;99.90;;;;;;4927410;29;20191;-89
2021/11/02 15:26:31;;;;;;;1.73;1.20;;;9.00;99.90;;;;;;4937133;29;20219;-90
2021/11/02 15:38:59;;;;;;;2.70;1.30;;;9.00;99.90;;;;;;5072619;28;20223;-90
2021/11/02 15:42:19;;;;;;;1.60;1.50;;;9.00;99.90;;;;;;5045738;28;20196;-90
2021/11/02 16:01:20;;;;;;;1.90;1.63;;;9.10;99.90;;;;;;4987033;28;20197;-90
2021/11/02 16:04:19;;;;;;;1.97;1.60;;;9.20;99.90;;;;;;4948695;29;20217;-90
2021/11/02 16:07:13;;;;;;;1.50;1.40;;;9.10;99.90;;;;;;5027162;28;20209;-90
2021/11/02 16:09:55;;;;;;;1.63;1.53;;;9.10;99.90;;;;;;5018523;28;20202;-90
2021/11/02 16:12:38;;;;;;;2.93;1.60;;;9.00;99.90;;;;;;5039049;28;20719;-91
2021/11/02 16:15:33;;;;;;;1.40;1.30;;;9.00;99.90;;;;;;5073432;22;20199;-90
2021/11/02 16:18:07;;;;;;;2.53;1.50;;;9.10;99.90;;;;;;5047944;28;20276;-91
2021/11/02 16:21:04;;;;;;;1.40;1.30;;;9.20;99.90;;;;;;5050490;28;20196;-90
2021/11/02 16:23:54;;;;;;;1.67;1.57;;;9.30;99.50;;;;;;5049208;28;20680;-91
2021/11/02 16:26:40;;;;;;;4.33;1.63;;;9.40;99.70;;;;;;5045012;28;20259;-89
2021/11/02 16:29:37;;;;;;;1.50;1.40;;;9.40;99.50;;;;;;5027427;28;20247;-90
2021/11/02 16:32:24;;;;;;;2.20;1.50;;;9.50;99.00;;;;;;5036766;28;20189;-91
2021/11/02 16:35:17;;;;;;;2.00;1.80;;;9.60;99.00;;;;;;5037674;28;20190;-90
2021/11/02 16:37:42;;;;;;;1.50;1.47;;;9.80;99.30;;;;;;5045009;28;20194;-90
2021/11/02 16:40:23;;;;;;;1.90;1.63;;;9.80;99.00;;;;;;5041551;28;20729;-93
2021/11/02 16:43:13;;;;;;;;;;;;;;;;;;;;;
2021/11/02 16:45:39;;;;;;;1.57;1.40;;;9.90;98.80;;;;;;5057094;22;20328;-91
2021/11/02 16:48:08;;;;;;;2.07;1.60;;;10.00;98.70;;;;;;5050442;28;20217;-91
2021/11/02 16:50:37;;;;;;;2.00;1.83;;;10.00;98.50;;;;;;5073541;28;20191;-91
2021/11/02 16:53:23;;;;;;;3.73;3.40;;;10.00;98.30;;;;;;5058980;28;20365;-91
2021/11/02 16:55:50;;;;;;;4.17;3.83;;;10.00;97.30;;;;;;5053245;28;20201;-92
2021/11/02 16:58:21;;;;;;;4.23;3.80;;;9.70;99.00;;;;;;5055832;28;20377;-92
2021/11/02 17:01:08;;;;;;;3.27;2.97;;;9.60;99.70;;;;;;5061919;28;20271;-93
2021/11/02 17:03:35;;;;;;;3.60;3.30;;;9.70;99.20;;;;;;5065190;28;20213;-93
2021/11/02 17:06:12;;;;;;;3.67;3.30;;;9.70;99.10;;;;;;5064137;28;20183;-93
2021/11/02 17:08:46;;;;;;;3.33;3.03;;;9.80;98.50;;;;;;5048477;28;20194;-93
2021/11/02 17:11:19;;;;;;;3.97;3.30;;;9.80;97.80;;;;;;5067149;28;20232;-93
2021/11/02 17:13:47;;;;;;;3.43;3.23;;;9.80;98.50;;;;;;5047758;28;20237;-92
2021/11/02 17:16:19;;;;;;;3.20;3.00;;;9.80;98.70;;;;;;5042102;28;20533;-93
2021/11/02 17:18:58;;;;;;;4.73;3.03;;;9.80;98.80;;;;;;5043743;28;20168;-94
2021/11/02 17:21:29;;;;;;;2.87;2.67;;;9.90;98.50;;;;;;5044896;28;20642;-93
2021/11/02 17:23:56;;;;;;;4.07;3.77;;;10.00;98.30;;;;;;5036095;28;20214;-93
2021/11/02 17:26:24;;;;;;;3.50;3.00;;;10.00;97.40;;;;;;5064070;28;20203;-93
2021/11/02 17:28:52;;;;;;;3.23;2.93;;;9.90;97.40;;;;;;5066242;28;20190;-93
2021/11/02 17:31:21;;;;;;;3.10;2.80;;;9.90;97.80;;;;;;5030346;28;20213;-93
2021/11/02 17:33:47;;;;;;;3.37;3.00;;;9.90;97.80;;;;;;5041132;28;20184;-93
2021/11/02 17:36:21;;;;;;;4.07;2.90;;;9.90;97.80;;;;;;5044764;28;20185;-93
2021/11/02 17:38:52;;;;;;;3.30;3.10;;;9.80;97.60;;;;;;5044786;28;20191;-93
2021/11/02 17:41:18;;;;;;;4.20;3.67;;;9.80;97.70;;;;;;5047079;28;20721;-92
2021/11/02 17:43:51;;;;;;;16.63;15.00;;;9.80;97.50;;;;;;5061011;28;20265;-92
2021/11/02 17:46:17;;;;;;;16.77;14.97;;;9.80;97.60;;;;;;5054600;28;20209;-92
2021/11/02 17:48:44;;;;;;;10.37;9.37;;;9.80;97.90;;;;;;5017379;28;20281;-92
2021/11/02 17:51:10;;;;;;;4.67;4.27;;;9.80;98.30;;;;;;5058061;28;20211;-92
2021/11/02 17:53:37;;;;;;;6.33;5.80;;;9.60;98.10;;;;;;5048315;28;20210;-94
2021/11/02 17:56:07;;;;;;;6.53;5.40;;;9.60;99.30;;;;;;5035822;28;20190;-92
2021/11/02 17:58:34;;;;;;;5.00;4.60;;;9.60;99.80;;;;;;5040078;28;20197;-92
2021/11/02 18:01:02;;;;;;;6.20;4.23;;;9.70;99.40;;;;;;5062340;28;20217;-91
2021/11/02 18:03:34;;;;;;;5.70;5.20;;;9.80;98.90;;;;;;5060837;28;20213;-92
2021/11/02 18:06:03;;;;;;;3.97;3.63;;;9.70;98.90;;;;;;5027041;28;20198;-93
2021/11/02 18:08:30;;;;;;;2.43;2.30;;;9.80;98.40;;;;;;5061280;28;20272;-92
2021/11/02 18:10:57;;;;;;;3.00;2.70;;;9.80;97.30;;;;;;5042507;28;20189;-93
2021/11/02 18:13:24;;;;;;;4.77;4.40;;;9.80;97.50;;;;;;5026362;28;20196;-91
2021/11/02 18:15:50;;;;;;;6.50;6.00;;;9.70;97.50;;;;;;5024139;28;20181;-92
2021/11/02 18:18:17;;;;;;;8.83;8.13;;;9.60;97.80;;;;;;5053302;28;20671;-92
2021/11/02 18:20:44;;;;;;;6.43;5.90;;;9.60;98.30;;;;;;5043781;28;20183;-92
2021/11/02 18:23:13;;;;;;;12.77;10.87;;;9.60;99.00;;;;;;5046760;28;20587;-92
2021/11/02 18:25:39;;;;;;;11.10;8.10;;;9.60;99.30;;;;;;5076965;28;20161;-93
2021/11/02 18:28:05;;;;;;;5.90;4.70;;;9.60;99.60;;;;;;5050180;28;20189;-91
2021/11/02 18:30:32;;;;;;;6.97;6.27;;;9.70;99.70;;;;;;5046286;28;20656;-92
2021/11/02 18:32:59;;;;;;;7.50;6.80;;;9.70;99.70;;;;;;5049142;28;20223;-92
2021/11/02 18:35:25;;;;;;;7.10;6.40;;;9.70;99.70;;;;;;5061657;28;20215;-93
2021/11/02 18:37:51;;;;;;;5.30;4.90;;;9.70;99.90;;;;;;5057378;28;20193;-92
2021/11/02 18:40:20;;;;;;;4.47;4.17;;;9.70;99.90;;;;;;5041561;28;20191;-92
2021/11/02 18:42:48;;;;;;;4.50;4.10;;;9.70;99.90;;;;;;5039773;28;20641;-92
2021/11/02 18:45:16;;;;;;;4.57;4.17;;;9.70;99.90;;;;;;5042966;28;20195;-91
2021/11/02 18:47:42;;;;;;;7.20;4.70;;;9.70;99.90;;;;;;5042228;28;20286;-91
2021/11/02 18:50:09;;;;;;;8.87;6.10;;;9.80;99.70;;;;;;5034699;28;20182;-91
2021/11/02 18:52:36;;;;;;;13.73;9.83;;;10.00;99.10;;;;;;5048393;28;20279;-90
2021/11/02 18:55:03;;;;;;;7.20;6.57;;;9.90;98.50;;;;;;5038704;28;20190;-91
2021/11/02 18:57:29;;;;;;;5.67;5.17;;;9.80;98.40;;;;;;5046114;28;20187;-92
2021/11/02 18:59:54;;;;;;;6.50;6.00;;;9.70;99.10;;;;;;5018047;28;20218;-92
2021/11/02 19:02:20;;;;;;;5.80;5.30;;;9.80;98.10;;;;;;5039591;28;20234;-92
2021/11/02 19:04:47;;;;;;;4.53;4.13;;;9.80;98.50;;;;;;5042894;28;20248;-93
2021/11/02 19:07:13;;;;;;;4.60;4.20;;;9.90;97.60;;;;;;5026205;28;20182;-92
2021/11/02 19:09:38;;;;;;;4.43;4.00;;;9.90;97.60;;;;;;5044053;28;20701;-92
2021/11/02 19:12:05;;;;;;;3.77;3.47;;;9.90;97.40;;;;;;5028557;28;20209;-92
2021/11/02 19:14:30;;;;;;;4.50;4.07;;;9.80;98.40;;;;;;5044469;28;20194;-92
2021/11/02 19:16:56;;;;;;;4.83;4.40;;;9.90;97.20;;;;;;5061217;28;20204;-92
2021/11/02 19:19:22;;;;;;;5.30;4.80;;;9.80;98.50;;;;;;5043731;28;20236;-92
2021/11/02 19:21:48;;;;;;;5.17;4.67;;;9.80;98.30;;;;;;5057180;28;20232;-92